createdAt,value
2022-11-24T00:01:27.467Z,2.03
2022-11-24T00:03:56.225Z,3.30
2022-11-24T00:06:25.382Z,1.92
2022-11-24T00:08:53.409Z,2.47
2022-11-24T00:11:21.697Z,2.17
2022-11-24T00:13:49.618Z,1.90
2022-11-24T00:16:18.192Z,1.98
2022-11-24T00:18:46.562Z,2.65
2022-11-24T00:21:14.297Z,2.30
2022-11-24T00:23:43.968Z,3.35
2022-11-24T00:26:12.545Z,2.50
2022-11-24T00:28:40.795Z,2.17
2022-11-24T00:31:17.489Z,2.45
2022-11-24T00:33:46.032Z,2.40
2022-11-24T00:36:14.485Z,2.13
2022-11-24T00:38:43.536Z,2.55
2022-11-24T00:41:11.412Z,2.67
2022-11-24T00:43:39.034Z,2.45
2022-11-24T00:46:07.065Z,2.40
2022-11-24T00:48:34.786Z,2.25
2022-11-24T00:51:03.453Z,2.60
2022-11-24T00:53:31.113Z,2.63
2022-11-24T00:56:00.200Z,2.28
2022-11-24T00:58:27.879Z,2.65
2022-11-24T01:00:56.879Z,3.28
2022-11-24T01:03:24.584Z,2.83
2022-11-24T01:05:52.560Z,2.20
2022-11-24T01:08:20.267Z,2.58
2022-11-24T01:10:47.879Z,3.72
2022-11-24T01:13:16.924Z,1.92
2022-11-24T01:15:44.699Z,2.97
2022-11-24T01:18:13.256Z,2.72
2022-11-24T01:20:41.106Z,3.05
2022-11-24T01:23:08.800Z,2.15
2022-11-24T01:25:36.418Z,3.05
2022-11-24T01:28:04.055Z,2.33
2022-11-24T01:30:33.316Z,3.53
2022-11-24T01:33:00.970Z,3.60
2022-11-24T01:35:28.599Z,3.53
2022-11-24T01:37:56.245Z,2.22
2022-11-24T01:40:24.033Z,2.78
2022-11-24T01:43:00.738Z,3.50
2022-11-24T01:45:32.229Z,2.83
2022-11-24T01:48:03.207Z,1.85
2022-11-24T01:50:31.101Z,2.58
2022-11-24T01:52:59.489Z,2.70
2022-11-24T01:55:29.551Z,2.45
2022-11-24T01:58:01.507Z,2.47
2022-11-24T02:00:29.265Z,2.50
2022-11-24T02:02:58.776Z,1.70
2022-11-24T02:05:31.099Z,2.00
2022-11-24T02:08:01.504Z,1.83
2022-11-24T02:10:29.462Z,1.70
2022-11-24T02:12:57.684Z,0.82
2022-11-24T02:15:26.182Z,2.58
2022-11-24T02:17:53.826Z,0.75
2022-11-24T02:20:21.696Z,0.47
2022-11-24T02:22:55.007Z,0.73
2022-11-24T02:25:30.730Z,0.57
2022-11-24T02:28:00.315Z,1.55
2022-11-24T02:30:28.266Z,0.82
2022-11-24T02:32:56.012Z,0.98
2022-11-24T02:35:23.895Z,1.17
2022-11-24T02:37:51.501Z,1.15
2022-11-24T02:40:24.814Z,0.50
2022-11-24T02:42:55.149Z,0.75
2022-11-24T02:45:24.691Z,1.20
2022-11-24T02:47:52.366Z,0.50
2022-11-24T02:50:20.199Z,0.68
2022-11-24T02:52:47.874Z,1.05
2022-11-24T02:55:15.603Z,1.42
2022-11-24T02:57:43.363Z,0.73
2022-11-24T03:00:11.707Z,0.98
2022-11-24T03:02:41.432Z,0.85
2022-11-24T03:05:09.630Z,0.88
2022-11-24T03:07:37.281Z,0.95
2022-11-24T03:10:05.266Z,0.68
2022-11-24T03:12:32.865Z,0.85
2022-11-24T03:15:00.666Z,1.00
2022-11-24T03:17:28.388Z,1.00
2022-11-24T03:20:02.920Z,1.15
2022-11-24T03:22:32.236Z,0.75
2022-11-24T03:25:00.519Z,0.98
2022-11-24T03:27:28.208Z,0.95
2022-11-24T03:29:55.908Z,0.90
2022-11-24T03:32:23.530Z,0.82
2022-11-24T03:34:51.307Z,0.88
2022-11-24T03:37:20.326Z,1.08
2022-11-24T03:39:47.918Z,0.73
2022-11-24T03:42:15.640Z,0.93
2022-11-24T03:44:43.358Z,1.00
2022-11-24T03:47:11.368Z,1.15
2022-11-24T03:49:39.114Z,0.70
2022-11-24T03:52:08.335Z,0.60
2022-11-24T03:54:37.561Z,0.85
2022-11-24T03:57:05.389Z,0.80
2022-11-24T03:59:33.083Z,0.50
2022-11-24T04:02:00.697Z,0.70
2022-11-24T04:04:28.396Z,0.70
2022-11-24T04:06:56.095Z,0.68
2022-11-24T04:09:23.929Z,1.17
2022-11-24T04:12:06.841Z,0.30
2022-11-24T04:14:34.837Z,0.38
2022-11-24T04:17:04.187Z,0.60
2022-11-24T04:19:31.993Z,0.50
2022-11-24T04:21:59.660Z,1.00
2022-11-24T04:24:27.302Z,1.17
2022-11-24T04:26:56.419Z,1.15
2022-11-24T04:29:24.134Z,0.82
2022-11-24T04:31:51.927Z,1.20
2022-11-24T04:34:19.639Z,1.20
2022-11-24T04:36:47.439Z,0.88
2022-11-24T04:39:23.941Z,1.20
2022-11-24T04:41:54.378Z,0.95
2022-11-24T04:44:23.445Z,1.55
2022-11-24T04:46:51.165Z,0.60
2022-11-24T04:49:18.998Z,1.20
2022-11-24T04:51:47.036Z,1.10
2022-11-24T04:54:15.796Z,1.75
2022-11-24T04:56:43.957Z,1.73
2022-11-24T04:59:13.584Z,1.45
2022-11-24T05:01:43.080Z,1.70
2022-11-24T05:04:11.759Z,2.15
2022-11-24T05:06:39.589Z,1.58
2022-11-24T05:09:08.196Z,2.30
2022-11-24T05:11:35.252Z,2.75
2022-11-24T05:14:03.001Z,1.33
2022-11-24T05:16:30.863Z,1.92
2022-11-24T05:19:00.081Z,1.90
2022-11-24T05:21:28.537Z,1.40
2022-11-24T05:23:57.145Z,1.75
2022-11-24T05:26:24.817Z,1.60
2022-11-24T05:28:52.549Z,1.50
2022-11-24T05:31:20.273Z,1.83
2022-11-24T05:33:47.919Z,1.38
2022-11-24T05:36:30.785Z,0.80
2022-11-24T05:38:58.449Z,2.47
2022-11-24T05:41:26.082Z,1.55
2022-11-24T05:43:53.729Z,0.95
2022-11-24T05:46:21.336Z,1.73
2022-11-24T05:48:49.086Z,1.52
2022-11-24T05:51:18.103Z,1.13
2022-11-24T05:53:45.804Z,1.33
2022-11-24T05:56:13.612Z,2.10
2022-11-24T05:58:41.389Z,2.03
2022-11-24T06:01:09.098Z,2.15
2022-11-24T06:03:36.750Z,1.25
2022-11-24T06:06:04.389Z,1.00
2022-11-24T06:08:33.479Z,1.70
2022-11-24T06:11:17.210Z,1.88
2022-11-24T06:13:45.534Z,1.67
2022-11-24T06:16:14.898Z,2.30
2022-11-24T06:18:42.716Z,2.13
2022-11-24T06:21:11.886Z,2.17
2022-11-24T06:23:41.290Z,2.42
2022-11-24T06:26:09.311Z,2.63
2022-11-24T06:28:37.269Z,2.20
2022-11-24T06:31:05.365Z,1.70
2022-11-24T06:33:33.809Z,2.25
2022-11-24T06:36:03.579Z,2.72
2022-11-24T06:38:31.460Z,2.28
2022-11-24T06:41:03.765Z,2.40
2022-11-24T06:43:31.830Z,2.30
2022-11-24T06:45:59.957Z,2.63
2022-11-24T06:48:28.202Z,2.97
2022-11-24T06:50:59.484Z,1.83
2022-11-24T06:53:27.153Z,2.90
2022-11-24T06:55:54.807Z,2.45
2022-11-24T06:58:23.744Z,2.80
2022-11-24T07:00:52.278Z,2.22
2022-11-24T07:03:20.042Z,3.83
2022-11-24T07:05:47.902Z,2.72
2022-11-24T07:08:17.974Z,2.25
2022-11-24T07:10:45.796Z,3.20
2022-11-24T07:13:13.425Z,3.25
2022-11-24T07:15:42.496Z,2.17
2022-11-24T07:18:10.276Z,4.43
2022-11-24T07:20:37.998Z,2.03
2022-11-24T07:23:05.824Z,3.08
2022-11-24T07:25:33.700Z,2.45
2022-11-24T07:28:01.361Z,3.10
2022-11-24T07:30:29.235Z,2.17
2022-11-24T07:33:01.101Z,2.25
2022-11-24T07:35:28.903Z,2.10
2022-11-24T07:37:56.894Z,2.40
2022-11-24T07:40:24.729Z,1.60
2022-11-24T07:42:52.513Z,1.88
2022-11-24T07:45:20.321Z,1.90
2022-11-24T07:47:48.045Z,1.77
2022-11-24T07:50:17.480Z,1.88
2022-11-24T07:52:45.105Z,2.10
2022-11-24T07:55:13.036Z,2.38
2022-11-24T07:57:41.351Z,1.50
2022-11-24T08:00:10.799Z,1.55
2022-11-24T08:02:38.455Z,2.85
2022-11-24T08:05:06.439Z,1.60
2022-11-24T08:07:35.499Z,1.70
2022-11-24T08:10:03.153Z,2.10
2022-11-24T08:12:30.785Z,1.20
2022-11-24T08:14:58.488Z,2.05
2022-11-24T08:17:26.158Z,1.45
2022-11-24T08:19:53.810Z,1.75
2022-11-24T08:22:21.589Z,2.38
2022-11-24T08:24:51.922Z,1.88
2022-11-24T08:27:20.286Z,1.50
2022-11-24T08:29:49.096Z,1.70
2022-11-24T08:32:22.068Z,0.82
2022-11-24T08:34:50.069Z,1.33
2022-11-24T08:37:17.946Z,1.70
2022-11-24T08:39:45.552Z,1.40
2022-11-24T08:42:14.514Z,1.27
2022-11-24T08:44:42.129Z,1.50
2022-11-24T08:47:09.787Z,1.58
2022-11-24T08:49:37.391Z,2.05
2022-11-24T08:52:05.096Z,1.73
2022-11-24T08:54:33.224Z,1.35
2022-11-24T08:57:01.131Z,2.15
2022-11-24T08:59:30.185Z,1.98
2022-11-24T09:01:57.925Z,1.52
2022-11-24T09:04:25.779Z,1.45
2022-11-24T09:06:53.658Z,1.65
2022-11-24T09:09:21.297Z,1.83
2022-11-24T09:11:48.909Z,1.48
2022-11-24T09:14:16.493Z,2.00
2022-11-24T09:16:45.996Z,1.92
2022-11-24T09:19:13.687Z,1.58
2022-11-24T09:21:41.290Z,1.50
2022-11-24T09:24:09.180Z,1.92
2022-11-24T09:26:40.647Z,2.08
2022-11-24T09:29:11.469Z,4.95
2022-11-24T09:31:39.268Z,2.20
2022-11-24T09:34:10.370Z,2.65
2022-11-24T09:36:38.103Z,1.35
2022-11-24T09:39:05.914Z,1.73
2022-11-24T09:41:37.159Z,1.88
2022-11-24T09:44:08.533Z,2.45
2022-11-24T09:46:41.209Z,1.83
2022-11-24T09:49:14.051Z,2.00
2022-11-24T09:51:43.199Z,1.85
2022-11-24T09:54:14.523Z,1.95
2022-11-24T09:56:42.796Z,1.65
2022-11-24T09:59:15.262Z,1.40
2022-11-24T10:01:43.515Z,2.38
2022-11-24T10:04:16.227Z,2.47
2022-11-24T10:06:46.815Z,1.65
2022-11-24T10:09:19.500Z,1.88
2022-11-24T10:11:51.250Z,1.50
2022-11-24T10:14:31.417Z,1.73
2022-11-24T10:17:03.207Z,2.13
2022-11-24T10:19:38.309Z,1.80
2022-11-24T10:24:48.523Z,1.50
2022-11-24T10:27:18.356Z,1.83
2022-11-24T10:29:50.134Z,1.45
2022-11-24T10:32:19.300Z,2.20
2022-11-24T10:34:50.541Z,2.88
2022-11-24T10:37:22.281Z,1.77
2022-11-24T10:39:57.234Z,1.95
2022-11-24T10:42:28.718Z,1.50
2022-11-24T10:45:02.945Z,1.95
2022-11-24T10:47:30.961Z,1.23
2022-11-24T10:50:02.791Z,2.47
2022-11-24T10:52:31.039Z,2.13
2022-11-24T10:54:59.253Z,2.50
2022-11-24T10:57:31.733Z,2.08
2022-11-24T10:59:59.459Z,2.20
2022-11-24T11:02:35.067Z,1.88
2022-11-24T11:05:17.652Z,1.83
2022-11-24T11:07:47.018Z,2.20
2022-11-24T11:10:22.055Z,2.38
2022-11-24T11:12:49.717Z,2.33
2022-11-24T11:15:22.923Z,2.17
2022-11-24T11:17:52.507Z,1.85
2022-11-24T11:20:22.418Z,2.17
2022-11-24T11:22:51.487Z,1.90
2022-11-24T11:25:21.569Z,2.13
2022-11-24T11:27:49.621Z,2.22
2022-11-24T11:36:11.250Z,1.90
2022-11-24T11:38:40.862Z,1.65
2022-11-24T11:41:11.946Z,2.67
2022-11-24T11:43:41.060Z,1.80
2022-11-24T11:46:12.623Z,1.90
2022-11-24T11:48:44.084Z,1.83
2022-11-24T11:51:23.937Z,2.00
2022-11-24T11:53:57.236Z,2.00
2022-11-24T11:56:26.372Z,1.58
2022-11-24T11:59:18.760Z,2.17
2022-11-24T12:02:03.879Z,2.50
2022-11-24T12:04:42.750Z,1.88
2022-11-24T12:07:23.533Z,1.95
2022-11-24T12:09:59.342Z,2.45
2022-11-24T12:12:44.623Z,1.80
2022-11-24T12:15:18.376Z,2.28
2022-11-24T12:17:49.670Z,2.40
2022-11-24T12:20:38.726Z,2.42
2022-11-24T12:23:11.387Z,2.13
2022-11-24T12:25:42.219Z,2.17
2022-11-24T12:28:18.454Z,2.33
2022-11-24T12:30:51.137Z,1.85
2022-11-24T12:33:36.379Z,2.45
2022-11-24T12:36:10.364Z,2.30
2022-11-24T12:38:45.597Z,2.45
2022-11-24T12:41:40.992Z,2.13
2022-11-24T12:44:12.592Z,2.55
2022-11-24T12:46:44.257Z,1.85
2022-11-24T12:49:17.604Z,2.40
2022-11-24T12:51:47.646Z,2.20
2022-11-24T12:54:16.846Z,3.17
2022-11-24T12:56:48.811Z,1.70
2022-11-24T12:59:21.979Z,2.38
2022-11-24T13:01:52.344Z,2.67
2022-11-24T13:04:28.270Z,2.53
2022-11-24T13:07:00.678Z,2.22
2022-11-24T13:09:28.395Z,2.03
2022-11-24T13:12:06.750Z,2.17
2022-11-24T13:14:37.410Z,2.05
2022-11-24T13:17:42.101Z,2.42
2022-11-24T13:20:15.457Z,2.30
2022-11-24T13:22:47.317Z,2.00
2022-11-24T13:25:18.760Z,2.38
2022-11-24T13:27:49.517Z,1.65
2022-11-24T13:30:51.060Z,1.88
2022-11-24T13:33:29.985Z,1.58
2022-11-24T13:36:30.647Z,2.80
2022-11-24T13:38:58.682Z,1.50
2022-11-24T13:41:44.630Z,2.15
2022-11-24T13:44:24.419Z,2.00
2022-11-24T13:47:04.831Z,1.90
2022-11-24T13:49:38.562Z,2.20
2022-11-24T13:52:24.549Z,2.63
2022-11-24T13:54:53.259Z,2.65
2022-11-24T13:57:37.014Z,1.83
2022-11-24T14:00:19.413Z,2.03
2022-11-24T14:02:47.289Z,2.42
2022-11-24T14:05:15.541Z,2.63
2022-11-24T14:07:43.655Z,2.25
2022-11-24T14:10:15.681Z,3.65
2022-11-24T14:12:43.795Z,2.10
2022-11-24T14:15:22.802Z,2.13
2022-11-24T14:17:50.393Z,2.22
2022-11-24T14:20:18.454Z,2.72
2022-11-24T14:22:46.092Z,3.25
2022-11-24T14:25:21.570Z,2.40
2022-11-24T14:27:49.189Z,2.00
2022-11-24T14:30:22.619Z,3.10
2022-11-24T14:32:56.888Z,1.92
2022-11-24T14:35:25.771Z,2.17
2022-11-24T14:37:53.781Z,2.30
2022-11-24T14:40:40.734Z,1.85
2022-11-24T14:43:16.967Z,1.95
2022-11-24T14:45:50.617Z,2.63
2022-11-24T14:48:18.976Z,2.47
2022-11-24T14:50:46.859Z,2.55
2022-11-24T14:53:16.296Z,3.95
2022-11-24T14:55:43.970Z,2.65
2022-11-24T14:58:21.293Z,2.85
2022-11-24T15:01:03.771Z,1.80
2022-11-24T15:03:32.844Z,2.30
2022-11-24T15:06:02.252Z,1.90
2022-11-24T15:08:31.764Z,2.22
2022-11-24T15:11:00.462Z,3.38
2022-11-24T15:13:28.557Z,3.60
2022-11-24T15:16:02.351Z,3.17
2022-11-24T15:18:36.124Z,2.80
2022-11-24T15:21:03.879Z,2.60
2022-11-24T15:23:32.262Z,2.65
2022-11-24T15:26:19.967Z,2.35
2022-11-24T15:28:47.963Z,3.05
2022-11-24T15:31:15.820Z,3.35
2022-11-24T15:33:44.876Z,2.35
2022-11-24T15:36:14.096Z,2.67
2022-11-24T15:38:42.228Z,2.05
2022-11-24T15:41:16.186Z,2.40
2022-11-24T15:43:43.897Z,2.67
2022-11-24T15:46:11.596Z,2.58
2022-11-24T15:48:39.303Z,2.65
2022-11-24T15:51:09.810Z,2.45
2022-11-24T15:53:39.071Z,4.40
2022-11-24T15:56:07.891Z,2.50
2022-11-24T15:58:35.688Z,4.07
2022-11-24T16:01:03.386Z,4.30
2022-11-24T16:03:48.326Z,2.88
2022-11-24T16:06:24.217Z,2.40
2022-11-24T16:08:53.145Z,3.47
2022-11-24T16:11:20.754Z,3.40
2022-11-24T16:13:52.380Z,2.55
2022-11-24T16:16:21.353Z,2.55
2022-11-24T16:18:49.112Z,2.65
2022-11-24T16:21:18.134Z,2.58
2022-11-24T16:23:45.708Z,3.03
2022-11-24T16:26:13.468Z,3.10
2022-11-24T16:28:41.093Z,2.50
2022-11-24T16:31:08.779Z,2.83
2022-11-24T16:33:40.598Z,2.72
2022-11-24T16:36:09.043Z,3.40
2022-11-24T16:38:38.023Z,3.88
2022-11-24T16:41:05.728Z,3.05
2022-11-24T16:43:33.409Z,2.63
2022-11-24T16:46:05.550Z,3.33
2022-11-24T16:48:36.516Z,2.70
2022-11-24T16:51:06.466Z,2.72
2022-11-24T16:53:34.106Z,2.38
2022-11-24T16:56:03.250Z,2.70
2022-11-24T16:58:30.911Z,2.67
2022-11-24T17:01:03.617Z,3.08
2022-11-24T17:03:33.246Z,3.25
2022-11-24T17:06:02.257Z,2.75
2022-11-24T17:08:31.399Z,2.80
2022-11-24T17:10:59.094Z,2.78
2022-11-24T17:13:28.090Z,2.67
2022-11-24T17:15:56.623Z,3.35
2022-11-24T17:18:25.459Z,2.65
2022-11-24T17:20:53.330Z,2.40
2022-11-24T17:23:21.121Z,2.53
2022-11-24T17:25:49.643Z,3.20
2022-11-24T17:28:17.247Z,3.25
2022-11-24T17:30:46.296Z,2.83
2022-11-24T17:33:13.913Z,3.05
2022-11-24T17:35:42.213Z,3.05
2022-11-24T17:38:09.948Z,3.05
2022-11-24T17:40:37.576Z,2.45
2022-11-24T17:43:05.327Z,3.65
2022-11-24T17:45:32.992Z,2.53
2022-11-24T17:48:02.052Z,2.58
2022-11-24T17:50:29.729Z,2.85
2022-11-24T17:52:57.500Z,3.78
2022-11-24T17:55:25.149Z,1.90
2022-11-24T17:57:52.896Z,2.40
2022-11-24T18:00:20.852Z,2.60
2022-11-24T18:02:48.625Z,2.58
2022-11-24T18:05:17.676Z,2.20
2022-11-24T18:07:45.297Z,3.28
2022-11-24T18:10:14.323Z,2.67
2022-11-24T18:12:41.966Z,2.92
2022-11-24T18:15:09.939Z,4.07
2022-11-24T18:17:37.558Z,3.30
2022-11-24T18:20:05.521Z,3.03
2022-11-24T18:23:04.007Z,2.97
2022-11-24T18:25:22.689Z,2.75
2022-11-24T18:27:50.912Z,2.33
2022-11-24T18:30:18.781Z,3.00
2022-11-24T18:32:46.353Z,2.20
2022-11-24T18:35:14.098Z,3.50
2022-11-24T18:37:44.605Z,2.50
2022-11-24T18:40:12.581Z,2.72
2022-11-24T18:42:40.274Z,3.17
2022-11-24T18:45:08.654Z,3.05
2022-11-24T18:47:36.325Z,2.33
2022-11-24T18:50:06.534Z,2.40
2022-11-24T18:52:34.327Z,2.92
2022-11-24T18:55:04.798Z,2.90
2022-11-24T18:57:32.559Z,2.30
2022-11-24T19:00:00.158Z,3.70
2022-11-24T19:02:27.862Z,2.60
2022-11-24T19:04:55.592Z,2.38
2022-11-24T19:07:23.285Z,2.88
2022-11-24T19:09:50.947Z,3.28
2022-11-24T19:12:19.922Z,2.70
2022-11-24T19:14:47.599Z,3.83
2022-11-24T19:17:15.434Z,2.85
2022-11-24T19:19:43.113Z,2.78
2022-11-24T19:22:10.749Z,2.38
2022-11-24T19:24:39.793Z,3.10
2022-11-24T19:27:07.477Z,2.35
2022-11-24T19:29:41.718Z,3.05
2022-11-24T19:32:11.029Z,2.47
2022-11-24T19:34:39.443Z,3.83
2022-11-24T19:37:07.024Z,4.72
2022-11-24T19:39:34.695Z,2.80
2022-11-24T19:42:03.202Z,3.58
2022-11-24T19:44:30.814Z,3.63
2022-11-24T19:46:59.749Z,2.80
2022-11-24T19:49:27.421Z,2.65
2022-11-24T19:51:55.044Z,3.45
2022-11-24T19:54:22.632Z,3.28
2022-11-24T19:56:50.483Z,3.03
2022-11-24T19:59:18.636Z,2.47
2022-11-24T20:01:46.484Z,3.45
2022-11-24T20:04:16.471Z,2.60
2022-11-24T20:06:44.919Z,2.38
2022-11-24T20:09:14.172Z,4.10
2022-11-24T20:11:42.054Z,2.75
2022-11-24T20:14:11.931Z,3.25
2022-11-24T20:16:39.740Z,2.28
2022-11-24T20:19:08.649Z,2.42
2022-11-24T20:21:38.297Z,2.20
2022-11-24T20:24:07.374Z,2.60
2022-11-24T20:26:35.937Z,2.40
2022-11-24T20:29:04.001Z,2.25
2022-11-24T20:31:33.925Z,2.72
2022-11-24T20:34:02.282Z,3.35
2022-11-24T20:36:31.010Z,2.60
2022-11-24T20:39:01.440Z,2.20
2022-11-24T20:41:29.991Z,2.70
2022-11-24T20:43:59.775Z,2.50
2022-11-24T20:46:28.247Z,2.50
2022-11-24T20:48:56.456Z,3.03
2022-11-24T20:51:25.205Z,2.40
2022-11-24T20:53:54.084Z,2.20
2022-11-24T20:56:24.597Z,2.63
2022-11-24T20:58:52.856Z,3.22
2022-11-24T21:01:21.373Z,3.03
2022-11-24T21:03:52.491Z,2.47
2022-11-24T21:06:20.361Z,3.38
2022-11-24T21:08:48.023Z,3.00
2022-11-24T21:11:16.101Z,3.10
2022-11-24T21:13:45.856Z,2.47
2022-11-24T21:16:14.556Z,2.72
2022-11-24T21:18:42.412Z,3.10
2022-11-24T21:21:10.079Z,3.00
2022-11-24T21:23:37.939Z,2.42
2022-11-24T21:26:11.533Z,2.67
2022-11-24T21:28:43.086Z,2.60
2022-11-24T21:31:13.474Z,2.58
2022-11-24T21:33:41.399Z,2.38
2022-11-24T21:36:09.508Z,2.70
2022-11-24T21:38:37.189Z,3.53
2022-11-24T21:41:05.779Z,2.60
2022-11-24T21:43:33.622Z,2.28
2022-11-24T21:46:02.688Z,2.75
2022-11-24T21:48:32.282Z,2.50
2022-11-24T21:51:00.288Z,2.92
2022-11-24T21:53:28.231Z,2.03
2022-11-24T21:55:56.530Z,2.65
2022-11-24T21:58:24.278Z,2.35
2022-11-24T22:00:52.310Z,2.13
2022-11-24T22:03:20.608Z,2.65
2022-11-24T22:05:55.407Z,2.70
2022-11-24T22:08:23.201Z,3.05
2022-11-24T22:10:50.957Z,2.75
2022-11-24T22:13:19.754Z,2.83
2022-11-24T22:15:47.585Z,3.13
2022-11-24T22:18:15.338Z,3.13
2022-11-24T22:20:42.914Z,3.08
2022-11-24T22:23:11.946Z,4.03
2022-11-24T22:25:39.573Z,2.53
2022-11-24T22:28:07.295Z,2.55
2022-11-24T22:30:34.929Z,2.53
2022-11-24T22:33:02.709Z,3.58
2022-11-24T22:35:30.350Z,3.20
2022-11-24T22:37:58.234Z,5.43
2022-11-24T22:40:27.409Z,3.60
2022-11-24T22:42:55.681Z,3.58
2022-11-24T22:45:23.589Z,2.80
2022-11-24T22:47:54.547Z,2.33
2022-11-24T22:50:22.156Z,2.00
2022-11-24T22:52:50.851Z,2.17
2022-11-24T22:55:18.504Z,1.95
2022-11-24T22:57:48.498Z,2.60
2022-11-24T23:00:17.008Z,2.33
2022-11-24T23:02:44.690Z,3.05
2022-11-24T23:05:14.703Z,3.80
2022-11-24T23:07:45.739Z,2.25
2022-11-24T23:10:13.592Z,2.58
2022-11-24T23:12:41.235Z,1.73
2022-11-24T23:15:10.733Z,2.22
2022-11-24T23:17:38.454Z,3.55
2022-11-24T23:20:07.348Z,2.90
2022-11-24T23:22:34.976Z,2.47
2022-11-24T23:25:02.597Z,3.00
2022-11-24T23:27:30.321Z,2.42
2022-11-24T23:29:57.916Z,2.33
2022-11-24T23:32:26.911Z,1.40
2022-11-24T23:34:54.509Z,1.23
2022-11-24T23:37:34.382Z,0.88
2022-11-24T23:40:09.979Z,0.63
2022-11-24T23:42:37.614Z,0.80
2022-11-24T23:45:05.861Z,0.88
2022-11-24T23:47:34.846Z,0.43
2022-11-24T23:50:02.486Z,0.20
2022-11-24T23:52:31.121Z,0.43
2022-11-24T23:54:58.782Z,0.50
2022-11-24T23:57:27.425Z,0.55
2022-11-24T23:59:55.085Z,0.52
